Terminal Aerodrome Forecast
Issued by NWS Corpus Christi, TX

Home | Current Version | Previous Version | Text Only | Print | Product List | Glossary On
Versions: 1 2 3 4 5 6 7 8 9 10 11 12 13
109
FTUS44 KCRP 272336
TAFVCT
TAF
KVCT 272336Z 2800/2824 17016G23KT P6SM SCT035 BKN150
     FM280200 16010KT P6SM SCT025 BKN150
      TEMPO 2806/2810 BKN025
     FM281000 VRB03KT 6SM BR SCT015 BKN150
     FM281400 18008KT P6SM VCSH SCT025 BKN150
     FM281800 17012KT P6SM SCT040 BKN200 PROB30 2819/2823 6SM TSRA
      BKN030CB=

USA.gov is the U.S. government's official web portal to all federal, state and local government web resources and services.